createdAt,value
2018-04-14T00:02:16.943Z,46.40
2018-04-14T00:04:44.468Z,46.93
2018-04-14T00:07:12.088Z,47.63
2018-04-14T00:09:39.654Z,48.87
2018-04-14T00:12:07.177Z,49.23
2018-04-14T00:14:35.473Z,50.03
2018-04-14T00:17:03.035Z,52.60
2018-04-14T00:19:30.569Z,50.83
2018-04-14T00:21:58.861Z,52.10
2018-04-14T00:24:27.274Z,47.20
2018-04-14T00:26:54.810Z,50.40
2018-04-14T00:29:22.331Z,48.03
2018-04-14T00:31:50.656Z,47.57
2018-04-14T00:34:18.194Z,48.47
2018-04-14T00:36:46.518Z,47.87
2018-04-14T00:39:14.166Z,50.67
2018-04-14T00:41:41.704Z,52.87
2018-04-14T00:44:09.240Z,55.97
2018-04-14T00:46:36.784Z,49.27
2018-04-14T00:49:04.318Z,52.67
2018-04-14T00:51:31.870Z,52.47
2018-04-14T00:53:59.400Z,52.47
2018-04-14T00:56:27.684Z,44.33
2018-04-14T00:58:55.269Z,49.37
2018-04-14T01:01:22.826Z,46.07
2018-04-14T01:03:50.388Z,50.70
2018-04-14T01:06:17.910Z,51.97
2018-04-14T01:08:46.226Z,51.70
2018-04-14T01:11:13.760Z,51.30
2018-04-14T01:13:42.058Z,51.13
2018-04-14T01:16:09.606Z,49.27
2018-04-14T01:18:37.186Z,49.17
2018-04-14T01:21:04.718Z,50.07
2018-04-14T01:23:33.024Z,54.23
2018-04-14T01:26:00.555Z,53.07
2018-04-14T01:28:28.853Z,52.90
2018-04-14T01:30:56.389Z,52.33
2018-04-14T01:33:24.675Z,52.80
2018-04-14T01:35:52.973Z,53.23
2018-04-14T01:38:20.514Z,53.97
2018-04-14T01:40:48.794Z,53.97
2018-04-14T01:43:17.084Z,49.50
2018-04-14T01:45:44.628Z,53.03
2018-04-14T01:48:12.928Z,54.27
2018-04-14T01:50:40.464Z,54.00
2018-04-14T01:53:08.776Z,52.20
2018-04-14T01:55:36.304Z,52.37
2018-04-14T01:58:04.612Z,52.63
2018-04-14T02:00:32.138Z,50.03
2018-04-14T02:03:00.446Z,54.33
2018-04-14T02:05:27.970Z,53.00
2018-04-14T02:07:55.514Z,53.90
2018-04-14T02:10:23.139Z,46.17
2018-04-14T02:12:50.651Z,45.40
2018-04-14T02:15:18.948Z,44.97
2018-04-14T02:17:47.233Z,46.97
2018-04-14T02:20:14.806Z,43.93
2018-04-14T02:22:42.367Z,47.63
2018-04-14T02:25:09.897Z,49.03
2018-04-14T02:27:38.199Z,49.10
2018-04-14T02:30:05.762Z,49.97
2018-04-14T02:32:33.291Z,51.93
2018-04-14T02:35:01.586Z,48.47
2018-04-14T02:37:29.136Z,45.83
2018-04-14T02:39:57.453Z,50.23
2018-04-14T02:42:24.989Z,46.87
2018-04-14T02:44:52.781Z,46.13
2018-04-14T02:47:20.347Z,43.87
2018-04-14T02:49:47.908Z,43.13
2018-04-14T02:52:15.487Z,43.73
2018-04-14T02:54:42.985Z,44.60
2018-04-14T02:57:11.278Z,43.83
2018-04-14T02:59:38.815Z,40.97
2018-04-14T03:02:07.116Z,40.17
2018-04-14T03:04:34.695Z,49.40
2018-04-14T03:07:02.243Z,50.87
2018-04-14T03:09:29.780Z,53.33
2018-04-14T03:11:58.078Z,53.43
2018-04-14T03:14:25.625Z,47.87
2018-04-14T03:16:53.909Z,48.80
2018-04-14T03:19:21.433Z,40.90
2018-04-14T03:21:48.979Z,39.13
2018-04-14T03:24:16.521Z,47.50
2018-04-14T03:26:44.045Z,52.00
2018-04-14T03:29:12.355Z,59.97
2018-04-14T03:31:39.921Z,68.00
2018-04-14T03:34:07.441Z,47.00
2018-04-14T03:36:35.747Z,54.87
2018-04-14T03:39:03.277Z,43.53
2018-04-14T03:41:31.588Z,42.73
2018-04-14T03:43:59.140Z,42.97
2018-04-14T03:46:26.717Z,54.63
2018-04-14T03:48:54.250Z,58.33
2018-04-14T03:51:21.804Z,49.83
2018-04-14T03:53:50.090Z,52.70
2018-04-14T03:56:17.652Z,45.60
2018-04-14T03:58:45.191Z,47.90
2018-04-14T04:01:13.500Z,52.40
2018-04-14T04:03:41.034Z,51.47
2018-04-14T04:06:09.338Z,54.53
2018-04-14T04:08:36.913Z,59.03
2018-04-14T04:11:04.460Z,57.30
2018-04-14T04:13:32.004Z,55.43
2018-04-14T04:16:00.409Z,52.77
2018-04-14T04:18:39.954Z,46.73
2018-04-14T04:21:19.336Z,45.83
2018-04-14T04:23:59.554Z,51.20
2018-04-14T04:26:27.941Z,47.63
2018-04-14T04:28:55.489Z,51.07
2018-04-14T04:31:23.024Z,51.43
2018-04-14T04:33:51.427Z,47.87
2018-04-14T04:36:18.978Z,46.30
2018-04-14T04:38:46.524Z,46.67
2018-04-14T04:41:14.812Z,48.50
2018-04-14T04:43:42.386Z,45.87
2018-04-14T04:46:09.946Z,48.37
2018-04-14T04:48:37.510Z,45.60
2018-04-14T04:51:05.055Z,45.37
2018-04-14T04:53:32.612Z,47.20
2018-04-14T04:56:00.180Z,46.20
2018-04-14T04:58:27.704Z,46.47
2018-04-14T05:00:55.238Z,42.93
2018-04-14T05:03:22.892Z,42.10
2018-04-14T05:05:50.428Z,42.30
2018-04-14T05:08:18.022Z,43.50
2018-04-14T05:10:45.552Z,43.90
2018-04-14T05:13:13.081Z,44.40
2018-04-14T05:15:41.391Z,44.73
2018-04-14T05:18:08.920Z,44.73
2018-04-14T05:20:36.464Z,47.57
2018-04-14T05:23:04.026Z,46.13
2018-04-14T05:25:31.557Z,47.30
2018-04-14T05:27:59.090Z,53.13
2018-04-14T05:30:26.636Z,44.53
2018-04-14T05:32:54.939Z,45.73
2018-04-14T05:35:22.466Z,44.47
2018-04-14T05:37:50.777Z,40.87
2018-04-14T05:40:18.304Z,42.73
2018-04-14T05:42:46.643Z,42.43
2018-04-14T05:45:14.174Z,42.77
2018-04-14T05:47:41.836Z,44.17
2018-04-14T05:50:09.373Z,47.20
2018-04-14T05:52:37.669Z,45.40
2018-04-14T05:55:05.207Z,45.97
2018-04-14T05:57:33.511Z,45.20
2018-04-14T06:00:01.867Z,44.77
2018-04-14T06:02:29.441Z,46.67
2018-04-14T06:04:57.023Z,46.70
2018-04-14T06:07:24.562Z,47.50
2018-04-14T06:09:52.101Z,52.07
2018-04-14T06:12:20.027Z,50.97
2018-04-14T06:14:47.585Z,49.93
2018-04-14T06:17:15.139Z,51.17
2018-04-14T06:19:42.687Z,51.33
2018-04-14T06:22:10.272Z,50.43
2018-04-14T06:24:37.792Z,51.47
2018-04-14T06:27:05.315Z,49.23
2018-04-14T06:29:32.937Z,51.20
2018-04-14T06:32:00.477Z,52.20
2018-04-14T06:34:28.022Z,50.33
2018-04-14T06:36:56.323Z,44.40
2018-04-14T06:39:24.115Z,40.37
2018-04-14T06:41:52.726Z,40.33
2018-04-14T06:44:21.029Z,42.10
2018-04-14T06:46:49.333Z,42.23
2018-04-14T06:49:16.877Z,40.17
2018-04-14T06:51:44.455Z,39.90
2018-04-14T06:54:11.998Z,41.03
2018-04-14T06:56:40.285Z,44.23
2018-04-14T06:59:07.844Z,44.47
2018-04-14T07:01:35.384Z,43.60
2018-04-14T07:04:03.700Z,44.00
2018-04-14T07:06:31.251Z,42.60
2018-04-14T07:08:58.794Z,42.77
2018-04-14T07:11:27.093Z,42.10
2018-04-14T07:13:54.652Z,41.87
2018-04-14T07:16:22.176Z,44.20
2018-04-14T07:18:50.497Z,45.50
2018-04-14T07:21:18.041Z,39.63
2018-04-14T07:23:45.622Z,41.40
2018-04-14T07:26:13.178Z,38.83
2018-04-14T07:28:40.728Z,40.93
2018-04-14T07:31:08.262Z,41.07
2018-04-14T07:33:36.786Z,41.73
2018-04-14T07:36:05.370Z,43.03
2018-04-14T07:38:32.901Z,42.23
2018-04-14T07:41:00.520Z,41.43
2018-04-14T07:43:35.205Z,39.60
2018-04-14T07:46:02.742Z,42.00
2018-04-14T07:48:38.075Z,43.87
2018-04-14T07:51:10.922Z,41.63
2018-04-14T07:53:40.217Z,41.93
2018-04-14T07:56:17.603Z,39.30
2018-04-14T08:01:46.984Z,38.63
2018-04-14T08:04:15.287Z,38.47
2018-04-14T08:06:42.874Z,39.03
2018-04-14T08:09:10.418Z,37.57
2018-04-14T08:11:45.710Z,39.37
2018-04-14T08:14:13.243Z,39.50
2018-04-14T08:16:40.791Z,39.20
2018-04-14T08:19:08.444Z,38.77
2018-04-14T08:21:35.984Z,40.87
2018-04-14T08:24:03.524Z,37.63
2018-04-14T08:26:32.819Z,39.40
2018-04-14T08:29:01.144Z,40.60
2018-04-14T08:31:28.711Z,37.70
2018-04-14T08:33:56.261Z,38.13
2018-04-14T08:36:23.800Z,37.80
2018-04-14T08:38:51.382Z,39.03
2018-04-14T08:41:18.939Z,38.07
2018-04-14T08:43:46.477Z,38.33
2018-04-14T08:46:14.768Z,40.10
2018-04-14T08:48:42.315Z,43.73
2018-04-14T08:51:10.721Z,41.00
2018-04-14T08:53:38.270Z,42.13
2018-04-14T08:57:17.714Z,40.87
2018-04-14T08:59:45.251Z,40.70
2018-04-14T09:02:13.555Z,43.10
2018-04-14T09:04:41.094Z,41.80
2018-04-14T09:07:09.397Z,42.23
2018-04-14T09:09:36.923Z,40.80
2018-04-14T09:12:05.246Z,41.37
2018-04-14T09:14:32.773Z,40.10
2018-04-14T09:17:01.081Z,42.67
2018-04-14T09:19:28.626Z,42.23
2018-04-14T09:21:56.507Z,41.20
2018-04-14T09:24:24.046Z,41.53
2018-04-14T09:26:52.463Z,39.57
2018-04-14T09:29:19.997Z,41.83
2018-04-14T09:31:47.530Z,43.40
2018-04-14T09:34:15.837Z,39.43
2018-04-14T09:36:43.444Z,41.73
2018-04-14T09:39:11.000Z,40.37
2018-04-14T09:41:38.548Z,41.83
2018-04-14T09:44:06.074Z,42.70
2018-04-14T09:46:33.613Z,40.33
2018-04-14T09:49:01.917Z,40.83
2018-04-14T09:51:29.448Z,40.57
2018-04-14T09:53:56.991Z,43.30
2018-04-14T09:56:24.556Z,42.77
2018-04-14T09:58:52.110Z,41.63
2018-04-14T10:01:25.468Z,42.43
2018-04-14T10:03:53.596Z,41.40
2018-04-14T10:06:21.125Z,43.50
2018-04-14T10:08:48.677Z,42.67
2018-04-14T10:11:16.216Z,40.37
2018-04-14T10:13:43.787Z,44.80
2018-04-14T10:16:11.357Z,43.53
2018-04-14T10:18:38.890Z,42.67
2018-04-14T10:21:06.416Z,43.40
2018-04-14T10:23:33.970Z,43.53
2018-04-14T10:26:01.526Z,44.80
2018-04-14T10:28:29.062Z,44.67
2018-04-14T10:30:56.613Z,44.43
2018-04-14T10:33:24.164Z,46.47
2018-04-14T10:35:51.708Z,43.97
2018-04-14T10:38:19.282Z,46.43
2018-04-14T10:40:46.821Z,46.33
2018-04-14T10:43:14.367Z,44.63
2018-04-14T10:45:42.677Z,45.13
2018-04-14T10:48:10.209Z,43.40
2018-04-14T10:50:38.520Z,45.07
2018-04-14T10:53:06.059Z,43.20
2018-04-14T10:55:34.362Z,43.30
2018-04-14T10:58:01.934Z,45.97
2018-04-14T11:00:29.484Z,45.87
2018-04-14T11:02:57.021Z,43.53
2018-04-14T11:05:24.561Z,44.63
2018-04-14T11:07:52.899Z,44.77
2018-04-14T11:10:20.441Z,46.33
2018-04-14T11:12:47.973Z,46.27
2018-04-14T11:15:16.301Z,47.37
2018-04-14T11:17:43.841Z,45.27
2018-04-14T11:20:11.381Z,44.67
2018-04-14T11:22:38.959Z,46.13
2018-04-14T11:25:06.498Z,44.77
2018-04-14T11:27:34.031Z,46.13
2018-04-14T11:30:02.344Z,44.83
2018-04-14T11:32:29.876Z,45.83
2018-04-14T11:34:58.210Z,46.80
2018-04-14T11:37:25.918Z,48.70
2018-04-14T11:39:54.232Z,47.57
2018-04-14T11:42:21.782Z,45.70
2018-04-14T11:44:49.360Z,47.70
2018-04-14T11:47:16.898Z,46.87
2018-04-14T11:49:44.454Z,46.33
2018-04-14T11:52:12.006Z,44.77
2018-04-14T11:54:40.306Z,46.40
2018-04-14T11:57:07.870Z,44.70
2018-04-14T11:59:35.415Z,45.77
2018-04-14T12:02:02.954Z,44.77
2018-04-14T12:04:31.248Z,39.10
2018-04-14T12:06:58.818Z,39.63
2018-04-14T12:09:26.352Z,40.57
2018-04-14T12:11:54.667Z,40.13
2018-04-14T12:14:23.642Z,40.50
2018-04-14T12:16:51.172Z,39.70
2018-04-14T12:19:18.698Z,39.17
2018-04-14T12:21:46.250Z,38.43
2018-04-14T12:24:13.783Z,40.80
2018-04-14T12:26:41.359Z,40.30
2018-04-14T12:29:08.886Z,40.03
2018-04-14T12:31:37.329Z,41.13
2018-04-14T12:34:04.873Z,39.93
2018-04-14T12:36:32.417Z,39.03
2018-04-14T12:38:59.947Z,39.33
2018-04-14T12:41:28.357Z,40.03
2018-04-14T12:43:55.915Z,41.03
2018-04-14T12:46:24.807Z,39.57
2018-04-14T12:48:53.054Z,40.13
2018-04-14T12:51:21.360Z,39.97
2018-04-14T12:53:48.894Z,39.47
2018-04-14T12:56:17.212Z,39.57
2018-04-14T12:58:44.780Z,40.43
2018-04-14T13:01:12.314Z,39.43
2018-04-14T13:03:39.861Z,40.30
2018-04-14T13:06:07.403Z,37.13
2018-04-14T13:08:35.696Z,35.77
2018-04-14T13:11:04.014Z,33.93
2018-04-14T13:13:31.691Z,34.23
2018-04-14T13:15:59.239Z,33.10
2018-04-14T13:18:26.762Z,33.90
2018-04-14T13:20:54.313Z,34.60
2018-04-14T13:23:22.724Z,34.13
2018-04-14T13:25:50.278Z,33.47
2018-04-14T13:28:17.838Z,32.97
2018-04-14T13:30:45.394Z,33.37
2018-04-14T13:33:12.926Z,35.67
2018-04-14T13:35:41.242Z,33.87
2018-04-14T13:38:08.893Z,33.83
2018-04-14T13:40:36.434Z,34.30
2018-04-14T13:43:04.740Z,32.03
2018-04-14T13:45:32.274Z,31.20
2018-04-14T13:48:00.582Z,30.80
2018-04-14T13:50:28.239Z,32.67
2018-04-14T13:52:55.781Z,31.63
2018-04-14T13:55:23.328Z,32.33
2018-04-14T13:57:51.733Z,31.77
2018-04-14T14:00:19.682Z,28.37
2018-04-14T14:02:47.965Z,32.83
2018-04-14T14:05:15.491Z,27.90
2018-04-14T14:07:43.113Z,28.53
2018-04-14T14:10:10.642Z,29.27
2018-04-14T14:12:38.954Z,28.97
2018-04-14T14:15:06.476Z,28.83
2018-04-14T14:17:34.775Z,30.23
2018-04-14T14:20:02.332Z,27.40
2018-04-14T14:22:29.904Z,30.97
2018-04-14T14:24:57.571Z,31.73
2018-04-14T14:27:25.124Z,29.23
2018-04-14T14:29:52.652Z,31.73
2018-04-14T14:32:20.942Z,30.27
2018-04-14T14:34:48.516Z,30.37
2018-04-14T14:37:16.181Z,29.67
2018-04-14T14:39:43.730Z,29.27
2018-04-14T14:42:11.298Z,28.50
2018-04-14T14:44:38.833Z,28.20
2018-04-14T14:47:07.143Z,27.80
2018-04-14T14:49:34.713Z,27.67
2018-04-14T14:52:02.234Z,22.93
2018-04-14T14:54:30.524Z,23.23
2018-04-14T14:56:58.063Z,21.03
2018-04-14T14:59:26.368Z,24.27
2018-04-14T15:01:59.781Z,21.27
2018-04-14T15:04:27.945Z,21.43
2018-04-14T15:06:55.481Z,22.33
2018-04-14T15:09:23.888Z,21.43
2018-04-14T15:11:51.456Z,21.70
2018-04-14T15:14:18.991Z,20.97
2018-04-14T15:16:46.525Z,21.07
2018-04-14T15:19:14.838Z,20.50
2018-04-14T15:21:42.354Z,22.37
2018-04-14T15:24:09.888Z,22.07
2018-04-14T15:26:37.435Z,20.67
2018-04-14T15:29:04.952Z,20.60
2018-04-14T15:31:33.245Z,22.83
2018-04-14T15:34:00.817Z,22.63
2018-04-14T15:36:28.344Z,21.27
2018-04-14T15:38:56.643Z,22.10
2018-04-14T15:41:24.213Z,22.47
2018-04-14T15:43:51.745Z,21.50
2018-04-14T15:46:20.059Z,23.10
2018-04-14T15:48:47.605Z,22.60
2018-04-14T15:51:15.124Z,23.53
2018-04-14T15:53:42.737Z,22.87
2018-04-14T15:56:10.274Z,23.20
2018-04-14T15:58:37.844Z,22.97
2018-04-14T16:01:05.388Z,22.33
2018-04-14T16:03:33.820Z,21.90
2018-04-14T16:06:01.355Z,22.60
2018-04-14T16:08:28.894Z,23.10
2018-04-14T16:10:56.427Z,23.13
2018-04-14T16:13:24.040Z,22.33
2018-04-14T16:15:51.594Z,23.93
2018-04-14T16:18:19.130Z,22.57
2018-04-14T16:20:47.635Z,23.00
2018-04-14T16:23:15.200Z,23.23
2018-04-14T16:25:42.745Z,21.70
2018-04-14T16:28:10.280Z,22.77
2018-04-14T16:30:38.589Z,24.57
2018-04-14T16:33:06.141Z,24.17
2018-04-14T16:35:33.712Z,26.27
2018-04-14T16:38:01.277Z,26.03
2018-04-14T16:40:28.817Z,26.57
2018-04-14T16:42:56.346Z,25.43
2018-04-14T16:45:23.969Z,25.50
2018-04-14T16:47:51.528Z,26.93
2018-04-14T16:50:19.075Z,26.73
2018-04-14T16:52:46.616Z,26.40
2018-04-14T16:55:14.169Z,28.10
2018-04-14T16:57:42.455Z,27.13
2018-04-14T17:00:09.989Z,27.67
2018-04-14T17:02:38.308Z,29.00
2018-04-14T17:05:05.882Z,29.67
2018-04-14T17:07:33.396Z,27.97
2018-04-14T17:10:01.702Z,29.23
2018-04-14T17:12:29.238Z,28.20
2018-04-14T17:14:57.543Z,28.90
2018-04-14T17:17:25.080Z,29.50
2018-04-14T17:19:53.380Z,30.50
2018-04-14T17:22:20.944Z,28.80
2018-04-14T17:24:48.483Z,28.53
2018-04-14T17:27:16.014Z,29.87
2018-04-14T17:29:43.555Z,29.17
2018-04-14T17:32:11.189Z,27.93
2018-04-14T17:34:38.710Z,26.77
2018-04-14T17:37:06.998Z,26.50
2018-04-14T17:39:35.401Z,26.50
2018-04-14T17:42:02.943Z,27.10
2018-04-14T17:44:30.509Z,27.47
2018-04-14T17:46:58.112Z,25.70
2018-04-14T17:49:25.628Z,26.60
2018-04-14T17:51:53.161Z,25.67
2018-04-14T17:54:21.471Z,26.27
2018-04-14T17:56:48.999Z,26.00
2018-04-14T17:59:17.287Z,25.83
2018-04-14T18:01:45.599Z,25.97
2018-04-14T18:04:13.120Z,27.03
2018-04-14T18:06:41.429Z,27.77
2018-04-14T18:09:08.981Z,28.30
2018-04-14T18:11:36.512Z,29.30
2018-04-14T18:14:04.799Z,30.27
2018-04-14T18:16:33.205Z,28.87
2018-04-14T18:19:00.735Z,28.57
2018-04-14T18:21:29.040Z,29.87
2018-04-14T18:23:56.582Z,28.10
2018-04-14T18:26:24.124Z,28.90
2018-04-14T18:28:52.428Z,27.87
2018-04-14T18:31:19.999Z,29.23
2018-04-14T18:33:47.530Z,29.67
2018-04-14T18:36:15.847Z,31.50
2018-04-14T18:38:43.405Z,31.00
2018-04-14T18:41:10.963Z,32.47
2018-04-14T18:43:38.536Z,35.50
2018-04-14T18:46:06.107Z,37.30
2018-04-14T18:48:33.643Z,41.27
2018-04-14T18:51:01.196Z,39.33
2018-04-14T18:53:28.746Z,40.83
2018-04-14T18:55:56.269Z,46.47
2018-04-14T18:58:23.895Z,39.33
2018-04-14T19:00:51.439Z,40.10
2018-04-14T19:03:18.970Z,41.67
2018-04-14T19:05:47.273Z,42.67
2018-04-14T19:08:14.817Z,48.67
2018-04-14T19:10:42.362Z,57.07
2018-04-14T19:13:10.649Z,50.17
2018-04-14T19:15:38.240Z,59.27
2018-04-14T19:18:06.512Z,75.23
2018-04-14T19:20:34.051Z,50.60
2018-04-14T19:23:01.581Z,51.00
2018-04-14T19:25:29.128Z,56.20
2018-04-14T19:27:56.764Z,66.00
2018-04-14T19:30:24.355Z,71.90
2018-04-14T19:32:51.870Z,64.17
2018-04-14T19:35:19.431Z,64.37
2018-04-14T19:37:47.087Z,62.57
2018-04-14T19:40:27.759Z,62.40
2018-04-14T19:42:59.760Z,58.10
2018-04-14T19:45:37.497Z,63.07
2018-04-14T19:48:05.731Z,60.03
2018-04-14T19:50:33.253Z,67.70
2018-04-14T19:53:00.779Z,58.40
2018-04-14T19:55:29.108Z,64.83
2018-04-14T19:57:56.671Z,67.13
2018-04-14T20:00:24.212Z,57.07
2018-04-14T20:02:51.778Z,61.47
2018-04-14T20:05:19.320Z,61.43
2018-04-14T20:07:46.855Z,62.57
2018-04-14T20:10:14.403Z,63.03
2018-04-14T20:12:41.930Z,59.30
2018-04-14T20:15:09.461Z,55.43
2018-04-14T20:17:36.994Z,59.87
2018-04-14T20:20:04.544Z,56.90
2018-04-14T20:22:32.174Z,64.60
2018-04-14T20:24:59.712Z,65.10
2018-04-14T20:27:27.280Z,65.77
2018-04-14T20:29:54.839Z,61.47
2018-04-14T20:32:22.462Z,63.23
2018-04-14T20:34:50.789Z,75.77
2018-04-14T20:37:18.319Z,71.37
2018-04-14T20:39:45.905Z,74.40
2018-04-14T20:42:13.451Z,73.40
2018-04-14T20:44:40.993Z,75.50
2018-04-14T20:47:09.409Z,79.57
2018-04-14T20:49:37.067Z,75.10
2018-04-14T20:52:04.601Z,71.17
2018-04-14T20:54:32.922Z,64.70
2018-04-14T20:57:00.581Z,68.97
2018-04-14T20:59:28.124Z,66.63
2018-04-14T21:01:55.700Z,63.80
2018-04-14T21:04:23.237Z,60.03
2018-04-14T21:06:50.807Z,66.40
2018-04-14T21:09:18.358Z,66.60
2018-04-14T21:11:45.885Z,73.20
2018-04-14T21:14:14.190Z,86.53
2018-04-14T21:16:41.766Z,74.70
2018-04-14T21:19:09.321Z,71.70
2018-04-14T21:21:36.853Z,77.17
2018-04-14T21:24:05.172Z,77.10
2018-04-14T21:26:32.718Z,75.43
2018-04-14T21:29:00.253Z,82.23
2018-04-14T21:31:28.549Z,79.67
2018-04-14T21:33:56.120Z,90.30
2018-04-14T21:36:23.657Z,86.30
2018-04-14T21:38:51.213Z,80.33
2018-04-14T21:41:19.515Z,75.07
2018-04-14T21:43:47.045Z,73.17
2018-04-14T21:46:15.460Z,74.60
2018-04-14T21:48:43.001Z,85.93
2018-04-14T21:51:10.536Z,73.90
2018-04-14T21:53:38.850Z,75.17
2018-04-14T21:56:06.390Z,76.43
2018-04-14T21:58:33.927Z,74.57
2018-04-14T22:01:02.232Z,73.50
2018-04-14T22:03:29.815Z,67.63
2018-04-14T22:05:57.366Z,72.13
2018-04-14T22:08:24.918Z,69.60
2018-04-14T22:10:52.449Z,68.27
2018-04-14T22:13:20.747Z,66.17
2018-04-14T22:15:49.161Z,70.70
2018-04-14T22:18:16.682Z,69.13
2018-04-14T22:20:44.989Z,70.57
2018-04-14T22:23:12.525Z,68.20
2018-04-14T22:25:40.056Z,66.67
2018-04-14T22:28:09.213Z,68.70
2018-04-14T22:30:36.743Z,72.70
2018-04-14T22:33:04.271Z,71.23
2018-04-14T22:35:31.805Z,65.80
2018-04-14T22:37:59.446Z,66.87
2018-04-14T22:40:26.984Z,75.33
2018-04-14T22:42:54.571Z,72.23
2018-04-14T22:45:22.124Z,72.70
2018-04-14T22:47:49.659Z,68.57
2018-04-14T22:50:17.959Z,68.13
2018-04-14T22:52:45.491Z,68.90
2018-04-14T22:55:13.786Z,68.07
2018-04-14T22:57:41.309Z,65.03
2018-04-14T23:00:08.930Z,63.77
2018-04-14T23:02:36.482Z,67.63
2018-04-14T23:05:04.008Z,69.77
2018-04-14T23:07:32.431Z,66.83
2018-04-14T23:09:59.963Z,64.67
2018-04-14T23:12:27.495Z,65.33
2018-04-14T23:14:55.032Z,64.30
2018-04-14T23:17:22.670Z,63.53
2018-04-14T23:19:50.218Z,65.80
2018-04-14T23:22:17.784Z,63.13
2018-04-14T23:24:45.314Z,59.27
2018-04-14T23:27:13.721Z,60.63
2018-04-14T23:29:41.262Z,59.27
2018-04-14T23:32:08.842Z,60.77
2018-04-14T23:34:36.412Z,59.70
2018-04-14T23:37:03.958Z,59.43
2018-04-14T23:39:31.489Z,59.17
2018-04-14T23:41:59.781Z,62.83
2018-04-14T23:44:28.178Z,59.07
2018-04-14T23:46:55.714Z,62.27
2018-04-14T23:49:24.028Z,64.10
2018-04-14T23:51:51.581Z,68.40
2018-04-14T23:54:19.119Z,62.93
2018-04-14T23:56:46.654Z,64.83
2018-04-14T23:59:14.204Z,61.73
